createdAt,value
2022-11-01T07:06:57.605Z,100890.16
2022-11-01T07:09:57.370Z,100939.47
2022-11-01T07:12:47.681Z,100892.28
2022-11-01T07:15:37.384Z,100869.44
2022-11-01T07:18:32.041Z,100910.47
2022-11-01T07:21:19.175Z,100874.69
2022-11-01T07:24:21.629Z,100944.84
2022-11-01T07:27:20.555Z,100879.06
2022-11-01T07:30:39.202Z,100910.16
2022-11-01T07:33:25.139Z,100899.59
2022-11-01T07:36:20.879Z,100906.38
2022-11-01T07:39:12.884Z,100923.88
2022-11-01T07:42:08.728Z,100909.72
2022-11-01T07:45:06.906Z,100887.88
2022-11-01T07:49:16.248Z,100905.03
2022-11-01T07:51:26.695Z,100936.22
2022-11-01T07:54:25.266Z,100917.19
2022-11-01T07:57:18.152Z,100902.03
2022-11-01T08:03:19.796Z,100928.22
2022-11-01T08:06:10.519Z,100902.84
2022-11-01T08:09:21.234Z,100911.91
2022-11-01T08:12:14.753Z,100908.59
2022-11-01T08:15:19.743Z,100929.84
2022-11-01T08:18:07.547Z,100927.38
2022-11-01T08:21:08.171Z,100909.75
2022-11-01T08:24:02.295Z,100911.03
2022-11-01T08:26:51.468Z,100907.09
2022-11-01T08:29:44.477Z,100921.31
2022-11-01T08:32:42.528Z,100942.72
2022-11-01T08:35:37.159Z,100960.00
2022-11-01T08:38:33.951Z,100956.75
2022-11-01T08:41:24.128Z,100936.00
2022-11-01T08:44:30.228Z,100942.25
2022-11-01T08:47:31.603Z,100928.28
2022-11-01T08:50:20.063Z,100910.72
2022-11-01T08:53:15.281Z,100919.41
2022-11-01T08:56:07.616Z,100965.19
2022-11-01T08:59:13.428Z,100929.88
2022-11-01T09:02:08.750Z,100950.81
2022-11-01T09:05:04.427Z,100940.91
2022-11-01T09:08:05.858Z,100930.84
2022-11-01T09:10:51.635Z,100965.59
2022-11-01T09:13:49.936Z,100974.41
2022-11-01T09:16:48.041Z,100924.09
2022-11-01T09:21:09.783Z,100957.78
2022-11-01T09:23:03.068Z,100961.81
2022-11-01T09:25:54.918Z,100979.19
2022-11-01T09:28:46.700Z,100980.03
2022-11-01T09:31:37.281Z,100981.19
2022-11-01T09:34:38.209Z,100945.91
2022-11-01T09:39:04.643Z,100945.72
2022-11-01T09:40:56.933Z,100986.19
2022-11-01T09:44:27.969Z,101017.13
2022-11-01T09:47:34.422Z,100993.75
2022-11-01T09:51:12.438Z,101024.22
2022-11-01T10:05:12.000Z,101023.09
2022-11-01T10:35:01.788Z,101040.66
2022-11-01T10:41:55.361Z,101046.81
2022-11-01T10:45:17.877Z,100991.34
2022-11-01T10:48:16.169Z,101040.16
2022-11-01T10:54:17.275Z,101023.78
2022-11-01T10:57:17.352Z,100987.13
2022-11-01T11:00:25.403Z,100995.25
2022-11-01T11:03:28.605Z,101048.91
2022-11-01T11:06:20.077Z,101032.97
2022-11-01T11:09:43.818Z,100991.75
2022-11-01T11:13:40.790Z,100992.88
2022-11-01T11:52:25.488Z,101011.47
2022-11-01T11:59:26.526Z,100993.53
2022-11-01T12:03:30.140Z,101030.31
2022-11-01T12:11:39.679Z,100987.97
2022-11-01T12:13:57.906Z,101044.41
2022-11-01T12:55:06.186Z,101038.78
2022-11-01T12:58:18.985Z,101052.97
2022-11-01T19:05:36.555Z,101304.44
2022-11-01T19:08:26.596Z,101270.38
2022-11-01T19:11:19.058Z,101327.09
2022-11-01T19:14:08.557Z,101260.34
2022-11-01T19:16:54.713Z,101287.22
2022-11-01T19:19:41.621Z,101302.88
2022-11-01T19:22:34.292Z,101307.59
2022-11-01T19:25:24.769Z,101254.72
2022-11-01T19:28:34.954Z,101310.84
2022-11-01T19:31:27.312Z,101320.66
2022-11-01T19:34:16.384Z,101283.13
2022-11-01T19:37:06.897Z,101273.03
2022-11-01T19:39:52.877Z,101295.53
2022-11-01T19:42:39.335Z,101292.34
2022-11-01T19:45:29.819Z,101354.91
2022-11-01T19:48:25.943Z,101330.50
2022-11-01T19:51:19.986Z,101343.41
2022-11-01T19:54:19.553Z,101310.28
2022-11-01T20:01:02.042Z,101338.47
2022-11-01T20:04:17.157Z,101358.03
2022-11-01T20:07:29.367Z,101339.50
2022-11-01T20:10:51.955Z,101340.84
2022-11-01T20:13:59.253Z,101348.03
2022-11-01T20:27:21.725Z,101329.47
2022-11-01T20:30:33.217Z,101337.47
2022-11-01T20:33:51.141Z,101324.69
2022-11-01T20:37:08.120Z,101381.97
2022-11-01T20:40:34.030Z,101349.16
2022-11-01T20:43:30.704Z,101333.94
2022-11-01T20:46:27.826Z,101359.28
2022-11-01T20:49:54.446Z,101363.16
2022-11-01T20:55:54.558Z,101353.91
2022-11-01T20:59:04.754Z,101362.09
2022-11-01T21:02:13.296Z,101351.50
2022-11-01T21:05:32.921Z,101399.47
2022-11-01T21:09:15.535Z,101360.47
2022-11-01T21:11:57.431Z,101368.34
2022-11-01T21:14:58.861Z,101330.81
2022-11-01T21:17:56.350Z,101361.00
2022-11-01T21:21:29.298Z,101329.16
2022-11-01T21:28:56.979Z,101361.91
2022-11-01T21:33:08.984Z,101400.72
2022-11-01T21:34:58.059Z,101344.75
2022-11-01T21:38:02.293Z,101378.44
2022-11-01T21:42:30.334Z,101344.22
2022-11-01T21:44:54.261Z,101398.13
2022-11-01T21:48:22.308Z,101369.06
2022-11-01T21:51:22.153Z,101343.03
2022-11-01T21:54:40.669Z,101325.94
2022-11-01T21:57:45.299Z,101379.53
2022-11-01T22:00:55.237Z,101313.59
2022-11-01T22:05:21.816Z,101363.91
2022-11-01T22:07:37.392Z,101337.34
2022-11-01T22:10:48.608Z,101322.03
2022-11-01T22:14:06.762Z,101337.41
2022-11-01T22:17:22.660Z,101366.88
2022-11-01T22:20:46.804Z,101310.50
2022-11-01T22:24:20.073Z,101333.72
2022-11-01T22:27:10.238Z,101328.28
2022-11-01T22:30:12.830Z,101294.06
2022-11-01T22:36:26.035Z,101356.66
2022-11-01T22:39:25.936Z,101335.34
2022-11-01T22:44:13.323Z,101306.25
2022-11-01T22:49:25.910Z,101333.50
2022-11-01T22:52:43.265Z,101301.16
2022-11-01T22:59:13.220Z,101284.47
2022-11-01T23:04:17.375Z,101355.19
2022-11-01T23:14:43.662Z,101318.66
2022-11-01T23:16:49.293Z,101282.63
2022-11-01T23:20:44.470Z,101273.25
2022-11-01T23:27:33.125Z,101283.28
2022-11-01T23:30:38.603Z,101304.25
2022-11-01T23:34:00.293Z,101310.13
2022-11-01T23:36:57.279Z,101271.28
2022-11-01T23:40:45.145Z,101268.38
2022-11-01T23:46:14.924Z,101299.03
2022-11-01T23:49:27.431Z,101294.81
2022-11-01T23:56:28.003Z,101289.78
2022-11-01T23:59:16.016Z,101299.22
